sensor_id;sensor_type;location;lat;lon;timestamp;P1;durP1;ratioP1;P2;durP2;ratioP2
72891;SDS011;61032;50.782;6.818;2023-04-15T00:00:48;16.75;;;10.45;;
72891;SDS011;61032;50.782;6.818;2023-04-15T00:01:50;16.75;;;9.45;;
72891;SDS011;61032;50.782;6.818;2023-04-15T00:02:51;15.88;;;8.82;;
72891;SDS011;61032;50.782;6.818;2023-04-15T00:03:52;12.68;;;7.68;;
72891;SDS011;61032;50.782;6.818;2023-04-15T00:04:53;12.43;;;6.88;;
72891;SDS011;61032;50.782;6.818;2023-04-15T00:05:54;12.02;;;6.80;;
72891;SDS011;61032;50.782;6.818;2023-04-15T00:06:54;10.80;;;6.18;;
72891;SDS011;61032;50.782;6.818;2023-04-15T00:07:55;10.55;;;6.03;;
72891;SDS011;61032;50.782;6.818;2023-04-15T00:08:55;10.40;;;5.50;;
72891;SDS011;61032;50.782;6.818;2023-04-15T00:09:56;5.22;;;3.42;;
72891;SDS011;61032;50.782;6.818;2023-04-15T00:10:57;9.45;;;4.20;;
72891;SDS011;61032;50.782;6.818;2023-04-15T00:12:01;6.10;;;3.60;;
72891;SDS011;61032;50.782;6.818;2023-04-15T00:13:02;7.70;;;3.72;;
72891;SDS011;61032;50.782;6.818;2023-04-15T00:14:03;4.70;;;3.10;;
72891;SDS011;61032;50.782;6.818;2023-04-15T00:15:05;6.70;;;3.60;;
72891;SDS011;61032;50.782;6.818;2023-04-15T00:16:07;9.48;;;3.45;;
72891;SDS011;61032;50.782;6.818;2023-04-15T00:17:08;5.95;;;3.25;;
72891;SDS011;61032;50.782;6.818;2023-04-15T00:18:08;5.72;;;3.65;;
72891;SDS011;61032;50.782;6.818;2023-04-15T00:19:08;5.53;;;2.88;;
72891;SDS011;61032;50.782;6.818;2023-04-15T00:20:09;5.70;;;3.63;;
72891;SDS011;61032;50.782;6.818;2023-04-15T00:21:09;4.55;;;2.22;;
72891;SDS011;61032;50.782;6.818;2023-04-15T00:22:10;4.75;;;3.35;;
72891;SDS011;61032;50.782;6.818;2023-04-15T00:23:11;4.05;;;2.75;;
72891;SDS011;61032;50.782;6.818;2023-04-15T00:24:12;5.00;;;2.75;;
72891;SDS011;61032;50.782;6.818;2023-04-15T00:25:13;4.60;;;3.22;;
72891;SDS011;61032;50.782;6.818;2023-04-15T00:26:14;5.45;;;3.08;;
72891;SDS011;61032;50.782;6.818;2023-04-15T00:27:14;3.50;;;2.63;;
72891;SDS011;61032;50.782;6.818;2023-04-15T00:28:15;4.38;;;2.50;;
72891;SDS011;61032;50.782;6.818;2023-04-15T00:29:16;7.22;;;2.75;;
72891;SDS011;61032;50.782;6.818;2023-04-15T00:30:16;2.78;;;2.03;;
72891;SDS011;61032;50.782;6.818;2023-04-15T00:31:17;4.90;;;2.08;;
72891;SDS011;61032;50.782;6.818;2023-04-15T00:32:17;3.10;;;1.80;;
72891;SDS011;61032;50.782;6.818;2023-04-15T00:33:19;4.03;;;2.42;;
72891;SDS011;61032;50.782;6.818;2023-04-15T00:34:19;3.25;;;2.05;;
72891;SDS011;61032;50.782;6.818;2023-04-15T00:35:20;4.95;;;1.63;;
72891;SDS011;61032;50.782;6.818;2023-04-15T00:36:20;3.75;;;1.60;;
72891;SDS011;61032;50.782;6.818;2023-04-15T00:37:21;1.80;;;1.33;;
72891;SDS011;61032;50.782;6.818;2023-04-15T00:38:22;3.47;;;2.00;;
72891;SDS011;61032;50.782;6.818;2023-04-15T00:39:22;3.75;;;2.00;;
72891;SDS011;61032;50.782;6.818;2023-04-15T00:40:22;3.65;;;1.90;;
72891;SDS011;61032;50.782;6.818;2023-04-15T00:41:23;4.65;;;1.65;;
72891;SDS011;61032;50.782;6.818;2023-04-15T00:42:24;2.30;;;1.67;;
72891;SDS011;61032;50.782;6.818;2023-04-15T00:43:25;3.15;;;1.60;;
72891;SDS011;61032;50.782;6.818;2023-04-15T00:44:26;2.80;;;1.13;;
72891;SDS011;61032;50.782;6.818;2023-04-15T00:45:27;4.50;;;2.30;;
72891;SDS011;61032;50.782;6.818;2023-04-15T00:46:28;6.53;;;1.83;;
72891;SDS011;61032;50.782;6.818;2023-04-15T00:47:30;3.85;;;1.50;;
72891;SDS011;61032;50.782;6.818;2023-04-15T00:48:32;4.60;;;1.80;;
72891;SDS011;61032;50.782;6.818;2023-04-15T00:49:32;2.45;;;1.63;;
72891;SDS011;61032;50.782;6.818;2023-04-15T00:50:33;3.15;;;1.63;;
72891;SDS011;61032;50.782;6.818;2023-04-15T00:51:33;3.13;;;1.85;;
72891;SDS011;61032;50.782;6.818;2023-04-15T00:52:35;3.20;;;2.03;;
72891;SDS011;61032;50.782;6.818;2023-04-15T00:53:36;3.45;;;1.50;;
72891;SDS011;61032;50.782;6.818;2023-04-15T00:54:36;3.70;;;1.65;;
72891;SDS011;61032;50.782;6.818;2023-04-15T00:55:36;6.97;;;2.25;;
72891;SDS011;61032;50.782;6.818;2023-04-15T00:56:37;4.00;;;1.60;;
72891;SDS011;61032;50.782;6.818;2023-04-15T00:57:38;3.90;;;2.15;;
72891;SDS011;61032;50.782;6.818;2023-04-15T00:58:39;4.45;;;1.60;;
72891;SDS011;61032;50.782;6.818;2023-04-15T00:59:40;5.10;;;1.90;;
72891;SDS011;61032;50.782;6.818;2023-04-15T01:00:40;2.97;;;1.50;;
72891;SDS011;61032;50.782;6.818;2023-04-15T01:01:41;3.72;;;1.88;;
72891;SDS011;61032;50.782;6.818;2023-04-15T01:02:43;4.68;;;1.73;;
72891;SDS011;61032;50.782;6.818;2023-04-15T01:03:44;4.72;;;2.35;;
72891;SDS011;61032;50.782;6.818;2023-04-15T01:04:44;4.28;;;1.85;;
72891;SDS011;61032;50.782;6.818;2023-04-15T01:05:45;2.45;;;1.98;;
72891;SDS011;61032;50.782;6.818;2023-04-15T01:06:45;4.40;;;2.10;;
72891;SDS011;61032;50.782;6.818;2023-04-15T01:07:46;5.35;;;2.60;;
72891;SDS011;61032;50.782;6.818;2023-04-15T01:08:47;3.03;;;1.63;;
72891;SDS011;61032;50.782;6.818;2023-04-15T01:09:48;2.63;;;1.58;;
72891;SDS011;61032;50.782;6.818;2023-04-15T01:10:49;3.80;;;1.70;;
72891;SDS011;61032;50.782;6.818;2023-04-15T01:11:49;3.58;;;2.13;;
72891;SDS011;61032;50.782;6.818;2023-04-15T01:12:50;5.53;;;2.00;;
72891;SDS011;61032;50.782;6.818;2023-04-15T01:13:51;17.30;;;2.00;;
72891;SDS011;61032;50.782;6.818;2023-04-15T01:14:54;4.18;;;1.80;;
72891;SDS011;61032;50.782;6.818;2023-04-15T01:15:55;7.07;;;2.53;;
72891;SDS011;61032;50.782;6.818;2023-04-15T01:16:56;7.00;;;2.85;;
72891;SDS011;61032;50.782;6.818;2023-04-15T01:18:00;7.80;;;3.05;;
72891;SDS011;61032;50.782;6.818;2023-04-15T01:19:02;6.20;;;3.13;;
72891;SDS011;61032;50.782;6.818;2023-04-15T01:20:02;7.35;;;3.00;;
72891;SDS011;61032;50.782;6.818;2023-04-15T01:21:04;6.63;;;2.70;;
72891;SDS011;61032;50.782;6.818;2023-04-15T01:22:06;6.85;;;2.85;;
72891;SDS011;61032;50.782;6.818;2023-04-15T01:23:06;8.93;;;3.05;;
72891;SDS011;61032;50.782;6.818;2023-04-15T01:24:07;6.70;;;3.05;;
72891;SDS011;61032;50.782;6.818;2023-04-15T01:25:10;10.98;;;3.28;;
72891;SDS011;61032;50.782;6.818;2023-04-15T01:26:12;11.15;;;4.43;;
72891;SDS011;61032;50.782;6.818;2023-04-15T01:27:13;15.77;;;5.93;;
72891;SDS011;61032;50.782;6.818;2023-04-15T01:28:13;13.65;;;5.20;;
72891;SDS011;61032;50.782;6.818;2023-04-15T01:29:14;10.13;;;5.55;;
72891;SDS011;61032;50.782;6.818;2023-04-15T01:30:15;10.98;;;6.25;;
72891;SDS011;61032;50.782;6.818;2023-04-15T01:31:16;12.73;;;5.97;;
72891;SDS011;61032;50.782;6.818;2023-04-15T01:32:17;12.15;;;6.32;;
72891;SDS011;61032;50.782;6.818;2023-04-15T01:33:17;12.45;;;6.68;;
72891;SDS011;61032;50.782;6.818;2023-04-15T01:34:18;10.15;;;5.15;;
72891;SDS011;61032;50.782;6.818;2023-04-15T01:35:18;12.30;;;5.03;;
72891;SDS011;61032;50.782;6.818;2023-04-15T01:36:19;9.80;;;4.85;;
72891;SDS011;61032;50.782;6.818;2023-04-15T01:37:19;10.02;;;4.80;;
72891;SDS011;61032;50.782;6.818;2023-04-15T01:38:19;8.15;;;3.97;;
72891;SDS011;61032;50.782;6.818;2023-04-15T01:39:20;9.10;;;4.53;;
72891;SDS011;61032;50.782;6.818;2023-04-15T01:40:20;7.43;;;4.18;;
72891;SDS011;61032;50.782;6.818;2023-04-15T01:41:25;6.93;;;3.47;;
72891;SDS011;61032;50.782;6.818;2023-04-15T01:42:26;6.13;;;3.58;;
72891;SDS011;61032;50.782;6.818;2023-04-15T01:43:27;7.35;;;3.95;;
72891;SDS011;61032;50.782;6.818;2023-04-15T01:44:28;7.28;;;4.47;;
72891;SDS011;61032;50.782;6.818;2023-04-15T01:45:28;6.63;;;4.47;;
72891;SDS011;61032;50.782;6.818;2023-04-15T01:46:29;7.30;;;3.72;;
72891;SDS011;61032;50.782;6.818;2023-04-15T01:47:29;6.15;;;3.50;;
72891;SDS011;61032;50.782;6.818;2023-04-15T01:48:30;7.80;;;3.50;;
72891;SDS011;61032;50.782;6.818;2023-04-15T01:49:31;6.55;;;3.47;;
72891;SDS011;61032;50.782;6.818;2023-04-15T01:50:31;6.78;;;3.05;;
72891;SDS011;61032;50.782;6.818;2023-04-15T01:51:32;7.07;;;2.83;;
72891;SDS011;61032;50.782;6.818;2023-04-15T01:52:33;4.22;;;2.50;;
72891;SDS011;61032;50.782;6.818;2023-04-15T01:53:33;3.78;;;1.95;;
72891;SDS011;61032;50.782;6.818;2023-04-15T01:54:33;4.07;;;1.55;;
72891;SDS011;61032;50.782;6.818;2023-04-15T01:55:34;2.80;;;2.05;;
72891;SDS011;61032;50.782;6.818;2023-04-15T01:56:34;3.47;;;1.80;;
72891;SDS011;61032;50.782;6.818;2023-04-15T01:57:35;3.60;;;1.77;;
72891;SDS011;61032;50.782;6.818;2023-04-15T01:58:36;4.05;;;2.00;;
72891;SDS011;61032;50.782;6.818;2023-04-15T01:59:36;3.75;;;1.42;;
72891;SDS011;61032;50.782;6.818;2023-04-15T02:00:37;3.20;;;1.67;;
72891;SDS011;61032;50.782;6.818;2023-04-15T02:01:37;3.20;;;1.73;;
72891;SDS011;61032;50.782;6.818;2023-04-15T02:02:38;5.80;;;1.90;;
72891;SDS011;61032;50.782;6.818;2023-04-15T02:03:39;4.35;;;2.05;;
72891;SDS011;61032;50.782;6.818;2023-04-15T02:04:39;4.82;;;1.55;;
72891;SDS011;61032;50.782;6.818;2023-04-15T02:05:39;2.80;;;1.90;;
72891;SDS011;61032;50.782;6.818;2023-04-15T02:06:40;3.90;;;2.00;;
72891;SDS011;61032;50.782;6.818;2023-04-15T02:07:43;3.92;;;2.15;;
72891;SDS011;61032;50.782;6.818;2023-04-15T02:08:44;2.35;;;2.00;;
72891;SDS011;61032;50.782;6.818;2023-04-15T02:09:44;3.28;;;2.03;;
72891;SDS011;61032;50.782;6.818;2023-04-15T02:10:45;4.93;;;2.05;;
72891;SDS011;61032;50.782;6.818;2023-04-15T02:11:45;10.80;;;2.10;;
72891;SDS011;61032;50.782;6.818;2023-04-15T02:12:45;3.40;;;1.85;;
72891;SDS011;61032;50.782;6.818;2023-04-15T02:13:46;4.68;;;1.95;;
72891;SDS011;61032;50.782;6.818;2023-04-15T02:14:46;6.93;;;2.20;;
72891;SDS011;61032;50.782;6.818;2023-04-15T02:15:47;3.80;;;1.55;;
72891;SDS011;61032;50.782;6.818;2023-04-15T02:16:48;5.22;;;1.58;;
72891;SDS011;61032;50.782;6.818;2023-04-15T02:17:48;4.43;;;2.13;;
72891;SDS011;61032;50.782;6.818;2023-04-15T02:18:51;3.70;;;1.83;;
72891;SDS011;61032;50.782;6.818;2023-04-15T02:19:51;2.90;;;2.35;;
72891;SDS011;61032;50.782;6.818;2023-04-15T02:20:52;2.20;;;1.42;;
72891;SDS011;61032;50.782;6.818;2023-04-15T02:21:52;3.33;;;1.73;;
72891;SDS011;61032;50.782;6.818;2023-04-15T02:22:53;4.57;;;2.55;;
72891;SDS011;61032;50.782;6.818;2023-04-15T02:23:53;2.97;;;1.90;;
72891;SDS011;61032;50.782;6.818;2023-04-15T02:24:53;5.82;;;1.90;;
72891;SDS011;61032;50.782;6.818;2023-04-15T02:25:54;4.90;;;2.00;;
72891;SDS011;61032;50.782;6.818;2023-04-15T02:26:54;3.90;;;1.65;;
72891;SDS011;61032;50.782;6.818;2023-04-15T02:27:56;4.47;;;1.75;;
72891;SDS011;61032;50.782;6.818;2023-04-15T02:28:57;2.45;;;1.75;;
72891;SDS011;61032;50.782;6.818;2023-04-15T02:29:57;5.30;;;1.88;;
72891;SDS011;61032;50.782;6.818;2023-04-15T02:30:58;2.40;;;1.55;;
72891;SDS011;61032;50.782;6.818;2023-04-15T02:31:58;2.70;;;1.63;;
72891;SDS011;61032;50.782;6.818;2023-04-15T02:32:59;2.65;;;1.70;;
72891;SDS011;61032;50.782;6.818;2023-04-15T02:34:00;3.70;;;2.10;;
72891;SDS011;61032;50.782;6.818;2023-04-15T02:35:03;4.32;;;2.17;;
72891;SDS011;61032;50.782;6.818;2023-04-15T02:36:04;2.13;;;1.70;;
72891;SDS011;61032;50.782;6.818;2023-04-15T02:37:07;4.30;;;1.60;;
72891;SDS011;61032;50.782;6.818;2023-04-15T02:38:11;2.90;;;1.95;;
72891;SDS011;61032;50.782;6.818;2023-04-15T02:39:13;4.38;;;1.92;;
72891;SDS011;61032;50.782;6.818;2023-04-15T02:40:16;3.33;;;1.95;;
72891;SDS011;61032;50.782;6.818;2023-04-15T02:41:16;2.63;;;1.23;;
72891;SDS011;61032;50.782;6.818;2023-04-15T02:42:17;3.60;;;1.73;;
72891;SDS011;61032;50.782;6.818;2023-04-15T02:43:18;3.15;;;1.88;;
72891;SDS011;61032;50.782;6.818;2023-04-15T02:44:18;5.05;;;2.22;;
72891;SDS011;61032;50.782;6.818;2023-04-15T02:45:19;2.78;;;1.65;;
72891;SDS011;61032;50.782;6.818;2023-04-15T02:46:23;4.28;;;1.90;;
72891;SDS011;61032;50.782;6.818;2023-04-15T02:47:23;4.07;;;1.73;;
72891;SDS011;61032;50.782;6.818;2023-04-15T02:48:23;5.32;;;2.55;;
72891;SDS011;61032;50.782;6.818;2023-04-15T02:49:24;4.75;;;1.50;;
72891;SDS011;61032;50.782;6.818;2023-04-15T02:50:24;2.70;;;1.50;;
72891;SDS011;61032;50.782;6.818;2023-04-15T02:51:29;3.67;;;1.85;;
72891;SDS011;61032;50.782;6.818;2023-04-15T02:52:30;4.47;;;2.03;;
72891;SDS011;61032;50.782;6.818;2023-04-15T02:53:30;4.03;;;2.30;;
72891;SDS011;61032;50.782;6.818;2023-04-15T02:54:31;4.97;;;2.50;;
72891;SDS011;61032;50.782;6.818;2023-04-15T02:55:33;2.20;;;1.55;;
72891;SDS011;61032;50.782;6.818;2023-04-15T02:56:33;3.22;;;1.65;;
72891;SDS011;61032;50.782;6.818;2023-04-15T02:57:34;2.15;;;1.52;;
72891;SDS011;61032;50.782;6.818;2023-04-15T02:58:36;3.30;;;1.60;;
72891;SDS011;61032;50.782;6.818;2023-04-15T02:59:37;2.95;;;1.77;;
72891;SDS011;61032;50.782;6.818;2023-04-15T03:00:38;3.30;;;1.65;;
72891;SDS011;61032;50.782;6.818;2023-04-15T03:01:38;3.80;;;1.73;;
72891;SDS011;61032;50.782;6.818;2023-04-15T03:02:39;3.60;;;1.92;;
72891;SDS011;61032;50.782;6.818;2023-04-15T03:03:41;3.90;;;1.80;;
72891;SDS011;61032;50.782;6.818;2023-04-15T03:04:41;2.20;;;1.45;;
72891;SDS011;61032;50.782;6.818;2023-04-15T03:05:41;3.45;;;1.65;;
72891;SDS011;61032;50.782;6.818;2023-04-15T03:06:41;3.90;;;1.90;;
72891;SDS011;61032;50.782;6.818;2023-04-15T03:07:42;2.78;;;2.20;;
72891;SDS011;61032;50.782;6.818;2023-04-15T03:08:42;2.90;;;1.92;;
72891;SDS011;61032;50.782;6.818;2023-04-15T03:09:43;3.88;;;1.70;;
72891;SDS011;61032;50.782;6.818;2023-04-15T03:10:43;3.55;;;1.50;;
72891;SDS011;61032;50.782;6.818;2023-04-15T03:11:44;5.28;;;1.73;;
72891;SDS011;61032;50.782;6.818;2023-04-15T03:12:44;3.13;;;1.85;;
72891;SDS011;61032;50.782;6.818;2023-04-15T03:13:45;5.10;;;2.10;;
72891;SDS011;61032;50.782;6.818;2023-04-15T03:14:46;4.07;;;1.80;;
72891;SDS011;61032;50.782;6.818;2023-04-15T03:15:46;5.07;;;1.70;;
72891;SDS011;61032;50.782;6.818;2023-04-15T03:16:47;3.40;;;1.63;;
72891;SDS011;61032;50.782;6.818;2023-04-15T03:17:49;5.78;;;1.52;;
72891;SDS011;61032;50.782;6.818;2023-04-15T03:18:50;2.92;;;1.38;;
72891;SDS011;61032;50.782;6.818;2023-04-15T03:19:50;3.15;;;1.85;;
72891;SDS011;61032;50.782;6.818;2023-04-15T03:20:51;3.40;;;1.85;;
72891;SDS011;61032;50.782;6.818;2023-04-15T03:21:51;3.10;;;1.60;;
72891;SDS011;61032;50.782;6.818;2023-04-15T03:22:51;5.10;;;1.98;;
72891;SDS011;61032;50.782;6.818;2023-04-15T03:23:52;2.97;;;1.70;;
72891;SDS011;61032;50.782;6.818;2023-04-15T03:24:52;3.10;;;1.83;;
72891;SDS011;61032;50.782;6.818;2023-04-15T03:25:52;3.63;;;2.05;;
72891;SDS011;61032;50.782;6.818;2023-04-15T03:26:55;4.20;;;2.13;;
72891;SDS011;61032;50.782;6.818;2023-04-15T03:27:56;3.38;;;1.60;;
72891;SDS011;61032;50.782;6.818;2023-04-15T03:28:57;4.85;;;1.73;;
72891;SDS011;61032;50.782;6.818;2023-04-15T03:29:57;2.83;;;1.58;;
72891;SDS011;61032;50.782;6.818;2023-04-15T03:30:58;3.88;;;1.75;;
72891;SDS011;61032;50.782;6.818;2023-04-15T03:31:59;2.42;;;1.80;;
72891;SDS011;61032;50.782;6.818;2023-04-15T03:33:00;4.13;;;1.90;;
72891;SDS011;61032;50.782;6.818;2023-04-15T03:34:00;4.57;;;1.60;;
72891;SDS011;61032;50.782;6.818;2023-04-15T03:35:00;3.85;;;1.40;;
72891;SDS011;61032;50.782;6.818;2023-04-15T03:36:01;3.60;;;2.15;;
72891;SDS011;61032;50.782;6.818;2023-04-15T03:37:01;2.13;;;1.40;;
72891;SDS011;61032;50.782;6.818;2023-04-15T03:38:01;3.28;;;1.73;;
72891;SDS011;61032;50.782;6.818;2023-04-15T03:39:02;3.53;;;1.75;;
72891;SDS011;61032;50.782;6.818;2023-04-15T03:40:03;4.00;;;2.30;;
72891;SDS011;61032;50.782;6.818;2023-04-15T03:41:03;3.15;;;1.92;;
72891;SDS011;61032;50.782;6.818;2023-04-15T03:42:04;4.05;;;2.10;;
72891;SDS011;61032;50.782;6.818;2023-04-15T03:43:05;2.55;;;1.60;;
72891;SDS011;61032;50.782;6.818;2023-04-15T03:44:05;3.90;;;2.28;;
72891;SDS011;61032;50.782;6.818;2023-04-15T03:45:06;2.97;;;1.35;;
72891;SDS011;61032;50.782;6.818;2023-04-15T03:46:07;2.97;;;2.10;;
72891;SDS011;61032;50.782;6.818;2023-04-15T03:47:07;3.70;;;1.88;;
72891;SDS011;61032;50.782;6.818;2023-04-15T03:48:07;3.65;;;1.95;;
72891;SDS011;61032;50.782;6.818;2023-04-15T03:49:08;2.95;;;1.73;;
72891;SDS011;61032;50.782;6.818;2023-04-15T03:50:08;3.22;;;1.55;;
72891;SDS011;61032;50.782;6.818;2023-04-15T03:51:09;5.53;;;2.15;;
72891;SDS011;61032;50.782;6.818;2023-04-15T03:52:09;3.45;;;1.70;;
72891;SDS011;61032;50.782;6.818;2023-04-15T03:53:10;2.70;;;1.52;;
72891;SDS011;61032;50.782;6.818;2023-04-15T03:54:10;3.33;;;1.65;;
72891;SDS011;61032;50.782;6.818;2023-04-15T03:55:13;2.25;;;1.90;;
72891;SDS011;61032;50.782;6.818;2023-04-15T03:56:14;2.25;;;1.50;;
72891;SDS011;61032;50.782;6.818;2023-04-15T03:57:14;3.88;;;1.92;;
72891;SDS011;61032;50.782;6.818;2023-04-15T03:58:15;4.40;;;2.00;;
72891;SDS011;61032;50.782;6.818;2023-04-15T03:59:15;4.45;;;1.65;;
72891;SDS011;61032;50.782;6.818;2023-04-15T04:00:16;3.10;;;2.00;;
72891;SDS011;61032;50.782;6.818;2023-04-15T04:01:16;2.33;;;1.33;;
72891;SDS011;61032;50.782;6.818;2023-04-15T04:02:16;3.10;;;1.90;;
72891;SDS011;61032;50.782;6.818;2023-04-15T04:03:17;3.58;;;1.77;;
72891;SDS011;61032;50.782;6.818;2023-04-15T04:04:17;2.78;;;1.73;;
72891;SDS011;61032;50.782;6.818;2023-04-15T04:05:17;5.18;;;1.83;;
72891;SDS011;61032;50.782;6.818;2023-04-15T04:06:18;3.50;;;1.63;;
72891;SDS011;61032;50.782;6.818;2023-04-15T04:07:18;2.15;;;1.52;;
72891;SDS011;61032;50.782;6.818;2023-04-15T04:08:19;2.90;;;1.33;;
72891;SDS011;61032;50.782;6.818;2023-04-15T04:09:20;4.05;;;1.83;;
72891;SDS011;61032;50.782;6.818;2023-04-15T04:10:21;3.65;;;1.92;;
72891;SDS011;61032;50.782;6.818;2023-04-15T04:11:21;3.53;;;2.15;;
72891;SDS011;61032;50.782;6.818;2023-04-15T04:12:21;3.20;;;1.90;;
72891;SDS011;61032;50.782;6.818;2023-04-15T04:13:22;3.80;;;1.80;;
72891;SDS011;61032;50.782;6.818;2023-04-15T04:14:22;2.70;;;1.70;;
72891;SDS011;61032;50.782;6.818;2023-04-15T04:15:28;3.22;;;2.17;;
72891;SDS011;61032;50.782;6.818;2023-04-15T04:16:28;4.35;;;2.05;;
72891;SDS011;61032;50.782;6.818;2023-04-15T04:17:29;5.13;;;2.28;;
72891;SDS011;61032;50.782;6.818;2023-04-15T04:18:30;2.67;;;1.70;;
72891;SDS011;61032;50.782;6.818;2023-04-15T04:19:31;3.50;;;1.90;;
72891;SDS011;61032;50.782;6.818;2023-04-15T04:20:31;2.58;;;1.67;;
72891;SDS011;61032;50.782;6.818;2023-04-15T04:21:32;3.33;;;1.50;;
72891;SDS011;61032;50.782;6.818;2023-04-15T04:22:39;5.82;;;2.00;;
72891;SDS011;61032;50.782;6.818;2023-04-15T04:23:40;4.82;;;2.03;;
72891;SDS011;61032;50.782;6.818;2023-04-15T04:24:40;4.53;;;2.58;;
72891;SDS011;61032;50.782;6.818;2023-04-15T04:25:40;3.95;;;1.98;;
72891;SDS011;61032;50.782;6.818;2023-04-15T04:26:41;3.72;;;1.85;;
72891;SDS011;61032;50.782;6.818;2023-04-15T04:27:41;4.72;;;2.08;;
72891;SDS011;61032;50.782;6.818;2023-04-15T04:28:42;4.03;;;1.90;;
72891;SDS011;61032;50.782;6.818;2023-04-15T04:29:42;1.85;;;1.40;;
72891;SDS011;61032;50.782;6.818;2023-04-15T04:30:43;2.95;;;1.80;;
72891;SDS011;61032;50.782;6.818;2023-04-15T04:31:44;2.10;;;1.60;;
72891;SDS011;61032;50.782;6.818;2023-04-15T04:32:44;3.08;;;1.85;;
72891;SDS011;61032;50.782;6.818;2023-04-15T04:33:45;3.15;;;1.40;;
72891;SDS011;61032;50.782;6.818;2023-04-15T04:34:45;3.08;;;1.70;;
72891;SDS011;61032;50.782;6.818;2023-04-15T04:35:46;2.35;;;1.27;;
72891;SDS011;61032;50.782;6.818;2023-04-15T04:36:46;3.83;;;2.35;;
72891;SDS011;61032;50.782;6.818;2023-04-15T04:37:46;4.97;;;2.08;;
72891;SDS011;61032;50.782;6.818;2023-04-15T04:38:47;2.67;;;1.70;;
72891;SDS011;61032;50.782;6.818;2023-04-15T04:39:47;2.13;;;1.45;;
72891;SDS011;61032;50.782;6.818;2023-04-15T04:40:47;3.20;;;1.55;;
72891;SDS011;61032;50.782;6.818;2023-04-15T04:41:48;2.00;;;1.52;;
72891;SDS011;61032;50.782;6.818;2023-04-15T04:42:51;2.15;;;1.88;;
72891;SDS011;61032;50.782;6.818;2023-04-15T04:43:51;3.80;;;1.45;;
72891;SDS011;61032;50.782;6.818;2023-04-15T04:44:51;3.20;;;2.05;;
72891;SDS011;61032;50.782;6.818;2023-04-15T04:45:52;2.53;;;1.55;;
72891;SDS011;61032;50.782;6.818;2023-04-15T04:46:52;3.92;;;1.92;;
72891;SDS011;61032;50.782;6.818;2023-04-15T04:47:53;2.67;;;1.45;;
72891;SDS011;61032;50.782;6.818;2023-04-15T04:48:53;3.45;;;1.40;;
72891;SDS011;61032;50.782;6.818;2023-04-15T04:49:53;2.45;;;1.25;;
72891;SDS011;61032;50.782;6.818;2023-04-15T04:50:54;3.47;;;1.75;;
72891;SDS011;61032;50.782;6.818;2023-04-15T04:51:54;2.92;;;1.80;;
72891;SDS011;61032;50.782;6.818;2023-04-15T04:52:55;5.00;;;1.65;;
72891;SDS011;61032;50.782;6.818;2023-04-15T04:53:55;1.85;;;1.45;;
72891;SDS011;61032;50.782;6.818;2023-04-15T04:54:56;2.28;;;1.55;;
72891;SDS011;61032;50.782;6.818;2023-04-15T04:55:56;3.83;;;1.70;;
72891;SDS011;61032;50.782;6.818;2023-04-15T04:56:57;3.63;;;1.80;;
72891;SDS011;61032;50.782;6.818;2023-04-15T04:57:57;2.42;;;1.27;;
72891;SDS011;61032;50.782;6.818;2023-04-15T04:58:57;6.68;;;1.60;;
72891;SDS011;61032;50.782;6.818;2023-04-15T04:59:58;2.55;;;1.05;;
72891;SDS011;61032;50.782;6.818;2023-04-15T05:00:58;5.90;;;1.75;;
72891;SDS011;61032;50.782;6.818;2023-04-15T05:01:59;3.45;;;1.85;;
72891;SDS011;61032;50.782;6.818;2023-04-15T05:02:59;3.67;;;2.30;;
72891;SDS011;61032;50.782;6.818;2023-04-15T05:04:00;4.20;;;2.65;;
72891;SDS011;61032;50.782;6.818;2023-04-15T05:05:00;5.25;;;2.40;;
72891;SDS011;61032;50.782;6.818;2023-04-15T05:06:00;6.38;;;2.50;;
72891;SDS011;61032;50.782;6.818;2023-04-15T05:07:05;5.30;;;2.28;;
72891;SDS011;61032;50.782;6.818;2023-04-15T05:08:05;7.60;;;2.17;;
72891;SDS011;61032;50.782;6.818;2023-04-15T05:09:06;3.65;;;2.03;;
72891;SDS011;61032;50.782;6.818;2023-04-15T05:10:07;3.85;;;1.60;;
72891;SDS011;61032;50.782;6.818;2023-04-15T05:11:07;2.53;;;1.42;;
72891;SDS011;61032;50.782;6.818;2023-04-15T05:12:08;4.10;;;2.10;;
72891;SDS011;61032;50.782;6.818;2023-04-15T05:13:13;3.28;;;1.67;;
72891;SDS011;61032;50.782;6.818;2023-04-15T05:14:14;2.67;;;1.55;;
72891;SDS011;61032;50.782;6.818;2023-04-15T05:15:14;3.50;;;1.83;;
72891;SDS011;61032;50.782;6.818;2023-04-15T05:16:15;3.33;;;1.52;;
72891;SDS011;61032;50.782;6.818;2023-04-15T05:17:16;5.97;;;2.05;;
72891;SDS011;61032;50.782;6.818;2023-04-15T05:18:16;1.92;;;1.50;;
72891;SDS011;61032;50.782;6.818;2023-04-15T05:19:16;2.88;;;1.80;;
72891;SDS011;61032;50.782;6.818;2023-04-15T05:20:16;2.72;;;1.67;;
72891;SDS011;61032;50.782;6.818;2023-04-15T05:21:17;3.55;;;1.42;;
72891;SDS011;61032;50.782;6.818;2023-04-15T05:22:18;2.80;;;1.30;;
72891;SDS011;61032;50.782;6.818;2023-04-15T05:23:18;5.35;;;2.42;;
72891;SDS011;61032;50.782;6.818;2023-04-15T05:24:18;4.05;;;2.13;;
72891;SDS011;61032;50.782;6.818;2023-04-15T05:25:19;2.78;;;1.73;;
72891;SDS011;61032;50.782;6.818;2023-04-15T05:26:19;5.15;;;2.20;;
72891;SDS011;61032;50.782;6.818;2023-04-15T05:27:21;4.55;;;2.05;;
72891;SDS011;61032;50.782;6.818;2023-04-15T05:28:23;3.55;;;2.08;;
72891;SDS011;61032;50.782;6.818;2023-04-15T05:29:23;2.35;;;1.48;;
72891;SDS011;61032;50.782;6.818;2023-04-15T05:30:23;2.88;;;1.67;;
72891;SDS011;61032;50.782;6.818;2023-04-15T05:31:24;4.30;;;2.05;;
72891;SDS011;61032;50.782;6.818;2023-04-15T05:32:24;3.58;;;1.77;;
72891;SDS011;61032;50.782;6.818;2023-04-15T05:33:25;2.92;;;1.67;;
72891;SDS011;61032;50.782;6.818;2023-04-15T05:34:26;2.35;;;1.80;;
72891;SDS011;61032;50.782;6.818;2023-04-15T05:35:26;3.40;;;2.33;;
72891;SDS011;61032;50.782;6.818;2023-04-15T05:36:27;4.18;;;1.90;;
72891;SDS011;61032;50.782;6.818;2023-04-15T05:37:27;4.75;;;2.50;;
72891;SDS011;61032;50.782;6.818;2023-04-15T05:38:28;7.40;;;2.53;;
72891;SDS011;61032;50.782;6.818;2023-04-15T05:39:28;4.38;;;1.90;;
72891;SDS011;61032;50.782;6.818;2023-04-15T05:40:29;4.45;;;2.30;;
72891;SDS011;61032;50.782;6.818;2023-04-15T05:41:30;3.25;;;2.33;;
72891;SDS011;61032;50.782;6.818;2023-04-15T05:42:30;3.67;;;2.00;;
72891;SDS011;61032;50.782;6.818;2023-04-15T05:43:31;4.40;;;1.40;;
72891;SDS011;61032;50.782;6.818;2023-04-15T05:44:31;3.92;;;1.73;;
72891;SDS011;61032;50.782;6.818;2023-04-15T05:45:32;5.30;;;2.30;;
72891;SDS011;61032;50.782;6.818;2023-04-15T05:46:32;2.95;;;2.22;;
72891;SDS011;61032;50.782;6.818;2023-04-15T05:47:33;2.28;;;1.65;;
72891;SDS011;61032;50.782;6.818;2023-04-15T05:48:34;3.50;;;1.35;;
72891;SDS011;61032;50.782;6.818;2023-04-15T05:49:35;3.28;;;1.40;;
72891;SDS011;61032;50.782;6.818;2023-04-15T05:50:36;3.47;;;1.48;;
72891;SDS011;61032;50.782;6.818;2023-04-15T05:51:36;2.72;;;1.63;;
72891;SDS011;61032;50.782;6.818;2023-04-15T05:52:37;5.43;;;2.05;;
72891;SDS011;61032;50.782;6.818;2023-04-15T05:53:37;5.95;;;2.72;;
72891;SDS011;61032;50.782;6.818;2023-04-15T05:54:37;3.00;;;2.05;;
72891;SDS011;61032;50.782;6.818;2023-04-15T05:55:38;4.72;;;1.73;;
72891;SDS011;61032;50.782;6.818;2023-04-15T05:56:38;4.10;;;1.98;;
72891;SDS011;61032;50.782;6.818;2023-04-15T05:57:39;6.45;;;2.08;;
72891;SDS011;61032;50.782;6.818;2023-04-15T05:58:39;5.03;;;2.38;;
72891;SDS011;61032;50.782;6.818;2023-04-15T05:59:40;7.20;;;3.10;;
72891;SDS011;61032;50.782;6.818;2023-04-15T06:00:41;10.73;;;4.88;;
72891;SDS011;61032;50.782;6.818;2023-04-15T06:01:41;12.10;;;4.47;;
72891;SDS011;61032;50.782;6.818;2023-04-15T06:02:41;11.55;;;3.65;;
72891;SDS011;61032;50.782;6.818;2023-04-15T06:03:42;7.30;;;3.33;;
72891;SDS011;61032;50.782;6.818;2023-04-15T06:04:42;11.23;;;4.45;;
72891;SDS011;61032;50.782;6.818;2023-04-15T06:05:43;9.60;;;5.22;;